Portada
METAR-TAF:

METAR-TAF

Aeroports :

Stigler, Oklahoma, Estats Units d'Amèrica

latitud: 35-17-17N, longitud: 095-05-38W, altitud: 183 m

Observació

L'informe es va fer fa 11 minuts, a les 21:15 UTC
Vent 8 kt del Nord/Nord-Oest
Temperatura 12°C
Humitat 94%
Pressió 1014 hPa
Visibilitat: 16.1 km
Cel cobert a una alçada de 800 ft

METAR: KGZL 212115Z AUTO 34008KT 10SM OVC008 12/11 A2994 RMK AO2

Hora: 15:26 (21:26 UTC)


TAF: manca

Observacions i pronòstics meteorològics de més de 4000 aeroports (METAR i TAF).

Les estacions disponibles són els punts grocs i vermells al mapa.

Posi el ratolí al punt desitjat per veure el nom de l'estació.

Feu clic per veure les observacions i els pronòstics meteorològics.

Per canviar el mapa: feu clic els botons verds amb una creu de color negre per apropar; al botó verd amb un guió per allunyar la imatge; o en les fletxes verdes per a mapes adjacents.


METAR-TAF: